Time;durP1;ratioP1;P1;durP2;ratioP2;P2;SDS_P1;SDS_P2;PMS_P1;PMS_P2;Temp;Humidity;BMP_temperature;BMP_pressure;BME280_temperature;BME280_humidity;BME280_pressure;Samples;Min_cycle;Max_cycle;Signal;HPM_P1;HPM_P2
2022/08/29 08:01:55;;;;;;;7.60;3.75;;;;;;;17.93;55.05;102093.69;5323066;27;20358;-73
2022/08/29 08:04:26;;;;;;;7.65;4.43;;;;;;;18.01;55.28;102086.53;5326157;27;20181;-73
2022/08/29 08:06:57;;;;;;;11.73;5.32;;;;;;;18.02;55.22;102085.38;5323708;28;20111;-72
2022/08/29 08:09:28;;;;;;;5.03;3.42;;;;;;;17.92;54.45;102079.97;5337118;28;20024;-73
2022/08/29 08:12:00;;;;;;;8.75;3.95;;;;;;;18.03;54.64;102095.47;5316446;28;20020;-73
2022/08/29 08:14:32;;;;;;;6.93;4.25;;;;;;;18.07;55.71;102090.88;5323936;28;20065;-72
2022/08/29 08:17:03;;;;;;;7.55;3.75;;;;;;;18.12;55.74;102085.19;5325936;27;20028;-73
2022/08/29 08:19:36;;;;;;;6.35;3.40;;;;;;;18.21;54.52;102090.91;5335948;28;20019;-73
2022/08/29 08:22:08;;;;;;;9.52;3.60;;;;;;;18.35;54.47;102080.50;5328350;27;20174;-73
2022/08/29 08:24:39;;;;;;;6.10;3.55;;;;;;;18.41;53.40;102086.88;5329906;27;20106;-72
2022/08/29 08:27:10;;;;;;;5.80;3.70;;;;;;;18.58;52.85;102087.03;5321556;27;20567;-72
2022/08/29 08:29:43;;;;;;;7.65;3.55;;;;;;;18.76;53.02;102084.44;5337378;27;20063;-72
2022/08/29 08:32:15;;;;;;;7.53;5.65;;;;;;;18.76;53.25;102081.63;5317556;28;20043;-74
2022/08/29 08:34:47;;;;;;;8.50;4.03;;;;;;;18.80;52.97;102086.31;5330248;28;20028;-72
2022/08/29 08:37:18;;;;;;;6.00;3.55;;;;;;;18.76;52.12;102085.25;5310737;28;20031;-71
2022/08/29 08:39:49;;;;;;;5.53;3.42;;;;;;;18.74;52.29;102083.88;5323859;27;20143;-72
2022/08/29 08:42:42;;;;;;;6.38;3.53;;;;;;;18.73;52.88;102080.25;5336843;27;20058;-72
2022/08/29 08:45:16;;;;;;;5.97;3.15;;;;;;;18.65;52.56;102084.63;5308461;27;20111;-72
2022/08/29 08:48:02;;;;;;;5.20;3.30;;;;;;;18.72;52.56;102072.97;5336857;27;20030;-72
2022/08/29 08:50:49;;;;;;;11.10;9.38;;;;;;;18.70;52.71;102078.06;5332131;28;20027;-72
2022/08/29 08:53:26;;;;;;;9.82;7.38;;;;;;;18.74;51.75;102069.84;5325277;28;20015;-72
2022/08/29 08:56:00;;;;;;;6.78;3.97;;;;;;;18.69;51.91;102074.44;5334348;27;20484;-72
2022/08/29 08:58:33;;;;;;;9.80;3.67;;;;;;;18.75;51.99;102079.94;5329628;27;20102;-72
2022/08/29 09:01:31;;;;;;;9.00;4.78;;;;;;;18.85;52.28;102088.19;5321674;28;20369;-72
2022/08/29 09:04:36;;;;;;;5.78;3.83;;;;;;;18.97;51.60;102090.41;5314256;28;20376;-72
2022/08/29 09:07:38;;;;;;;7.38;4.28;;;;;;;18.87;52.00;102085.88;5324963;27;20103;-72
2022/08/29 09:10:51;;;;;;;7.88;4.35;;;;;;;18.90;51.55;102086.06;5316390;28;20066;-71
2022/08/29 09:13:51;;;;;;;6.20;4.38;;;;;;;18.86;52.35;102087.03;5297046;28;20033;-71
2022/08/29 09:16:36;;;;;;;7.90;4.15;;;;;;;19.01;52.59;102088.66;5317212;28;20024;-71
2022/08/29 09:19:10;;;;;;;8.00;4.82;;;;;;;19.11;52.50;102100.47;5304708;28;20032;-72
2022/08/29 09:21:52;;;;;;;8.07;4.60;;;;;;;19.06;52.16;102094.97;5302373;28;20150;-72
2022/08/29 09:24:34;;;;;;;7.82;4.55;;;;;;;19.15;52.26;102091.41;5317097;27;20052;-71
2022/08/29 09:27:07;;;;;;;10.52;4.47;;;;;;;19.22;52.79;102094.63;5322095;28;20064;-72
2022/08/29 09:29:39;;;;;;;9.25;7.68;;;;;;;19.28;52.75;102098.97;5306659;28;20020;-72
2022/08/29 09:32:12;;;;;;;8.05;4.00;;;;;;;19.20;51.96;102099.72;5317999;28;20569;-71
2022/08/29 09:34:46;;;;;;;8.35;4.55;;;;;;;19.28;51.59;102107.41;5313616;28;20055;-72
2022/08/29 09:37:27;;;;;;;8.30;3.67;;;;;;;19.15;51.25;102108.28;5307416;28;20463;-72
2022/08/29 09:40:00;;;;;;;7.65;3.97;;;;;;;19.22;51.19;102108.66;5319215;28;20123;-71
2022/08/29 09:42:36;;;;;;;9.52;4.15;;;;;;;19.18;51.45;102102.03;5317641;28;20161;-71
2022/08/29 09:45:15;;;;;;;5.72;3.42;;;;;;;19.06;51.53;102099.78;5310577;28;20067;-72
2022/08/29 09:47:47;;;;;;;7.20;3.65;;;;;;;19.12;51.34;102098.50;5295372;28;20053;-72
2022/08/29 09:50:23;;;;;;;6.97;3.75;;;;;;;19.11;51.39;102094.84;5316968;28;20028;-72
2022/08/29 09:52:57;;;;;;;6.75;3.85;;;;;;;19.09;51.87;102097.16;5291917;28;20032;-73
2022/08/29 09:55:28;;;;;;;6.03;3.78;;;;;;;19.03;50.90;102092.81;5320339;28;20020;-72
2022/08/29 09:58:25;;;;;;;5.13;3.83;;;;;;;19.26;51.22;102087.22;5312626;28;20026;-71
2022/08/29 10:01:15;;;;;;;7.10;5.28;;;;;;;19.45;51.47;102084.19;5310740;28;20395;-68
2022/08/29 10:03:54;;;;;;;7.60;4.68;;;;;;;19.55;54.43;102087.56;5295718;28;20024;-68
2022/08/29 10:06:39;;;;;;;5.43;3.08;;;;;;;19.45;54.54;102087.84;5316142;28;20039;-68
2022/08/29 10:09:23;;;;;;;10.35;4.65;;;;;;;19.33;51.80;102087.59;5305235;28;20032;-71
2022/08/29 10:11:59;;;;;;;8.00;4.00;;;;;;;19.12;52.37;102087.25;5320316;28;20024;-70
2022/08/29 10:14:34;;;;;;;8.73;4.57;;;;;;;19.26;56.29;102098.47;5316134;28;20415;-72
2022/08/29 10:20:22;;;;;;;6.22;3.85;;;;;;;19.74;52.15;102097.84;5296925;28;20479;-72
2022/08/29 10:23:05;;;;;;;10.57;3.90;;;;;;;19.90;51.68;102096.28;5304027;28;20405;-72
2022/08/29 10:25:40;;;;;;;5.63;3.72;;;;;;;19.67;50.95;102100.28;5317692;28;20023;-73
2022/08/29 10:28:35;;;;;;;7.82;4.53;;;;;;;19.71;51.26;102092.84;5301470;28;20027;-72
2022/08/29 10:31:18;;;;;;;7.82;3.92;;;;;;;19.84;51.13;102091.94;5309653;28;20035;-75
2022/08/29 10:34:02;;;;;;;9.80;5.70;;;;;;;20.01;50.90;102079.09;5295448;28;20020;-76
2022/08/29 10:36:39;;;;;;;9.07;5.32;;;;;;;20.22;50.89;102085.81;5316662;28;20034;-74
2022/08/29 10:39:25;;;;;;;8.38;4.40;;;;;;;20.22;49.88;102071.72;5318083;28;20374;-73
2022/08/29 10:42:04;;;;;;;8.40;4.13;;;;;;;20.17;49.94;102077.50;5311754;28;20423;-73
2022/08/29 10:44:46;;;;;;;11.50;6.25;;;;;;;20.28;49.71;102078.88;5308543;28;20176;-73
2022/08/29 10:47:33;;;;;;;7.20;4.90;;;;;;;20.50;49.44;102085.56;5308737;28;20035;-73
2022/08/29 10:50:32;;;;;;;7.72;4.35;;;;;;;20.41;49.55;102072.28;5317355;28;20025;-73
2022/08/29 10:53:41;;;;;;;6.85;4.80;;;;;;;20.46;49.26;102076.13;5304849;28;20033;-77
2022/08/29 10:56:32;;;;;;;6.80;5.03;;;;;;;20.36;49.70;102069.63;5313303;28;20031;-76
2022/08/29 10:59:21;;;;;;;24.52;20.13;;;;;;;20.52;49.60;102064.34;5309556;28;20027;-77
2022/08/29 11:02:01;;;;;;;9.13;4.97;;;;;;;20.63;49.79;102053.63;5295699;28;20046;-76
2022/08/29 11:04:44;;;;;;;7.40;4.20;;;;;;;20.41;49.54;102054.56;5312948;27;20081;-75
2022/08/29 11:07:32;;;;;;;6.50;4.22;;;;;;;20.52;51.21;102050.25;5321189;28;20036;-73
2022/08/29 11:10:11;;;;;;;9.60;4.70;;;;;;;20.57;49.72;102044.50;5311524;28;20020;-74
2022/08/29 11:12:55;;;;;;;42.15;10.68;;;;;;;20.64;48.46;102046.84;5316195;28;20111;-76
2022/08/29 11:15:55;;;;;;;17.65;8.40;;;;;;;20.88;50.29;102046.34;5308238;28;20016;-73
2022/08/29 11:18:39;;;;;;;12.75;4.88;;;;;;;21.01;48.71;102038.91;5307581;28;20031;-73
2022/08/29 11:21:23;;;;;;;7.60;4.25;;;;;;;21.29;49.05;102039.38;5307752;28;20117;-74
2022/08/29 11:23:57;;;;;;;5.68;3.67;;;;;;;21.23;47.39;102030.25;5318879;28;20049;-74
2022/08/29 11:26:43;;;;;;;12.80;4.75;;;;;;;21.38;47.67;102031.75;5314048;28;20039;-74
2022/08/29 11:29:20;;;;;;;11.65;4.30;;;;;;;21.11;46.93;102030.09;5295750;28;20071;-74
2022/08/29 11:32:00;;;;;;;7.43;3.83;;;;;;;21.30;47.09;102023.28;5318028;28;20047;-74
2022/08/29 11:34:56;;;;;;;8.88;4.07;;;;;;;21.30;46.52;102026.13;5302706;28;20445;-73
2022/08/29 11:37:46;;;;;;;5.78;3.97;;;;;;;21.13;47.18;102018.50;5308403;28;20032;-74
2022/08/29 11:40:56;;;;;;;6.53;3.25;;;;;;;21.26;48.03;102012.66;5314275;28;20039;-73
2022/08/29 11:43:35;;;;;;;6.35;3.63;;;;;;;21.25;47.12;102021.47;5318617;28;20028;-74
2022/08/29 11:46:12;;;;;;;7.53;6.20;;;;;;;21.55;49.62;102019.63;5307012;28;20437;-74
2022/08/29 11:48:46;;;;;;;9.70;4.28;;;;;;;21.68;47.67;102012.09;5311520;28;20020;-74
2022/08/29 11:51:38;;;;;;;6.88;3.83;;;;;;;21.84;46.34;102021.66;5305239;28;20020;-75
2022/08/29 11:54:27;;;;;;;7.97;3.88;;;;;;;21.71;45.60;102009.44;5315217;28;20035;-74
2022/08/29 11:57:18;;;;;;;7.10;4.10;;;;;;;21.61;46.17;102015.44;5316900;28;20500;-73
2022/08/29 11:59:49;;;;;;;7.47;3.80;;;;;;;21.74;46.40;102015.56;5304944;28;20108;-75
2022/08/29 12:02:27;;;;;;;6.45;3.55;;;;;;;22.03;46.85;102007.13;5313053;28;20028;-74
2022/08/29 12:05:03;;;;;;;7.00;3.67;;;;;;;22.12;45.92;102016.38;5313132;28;20024;-74
2022/08/29 12:08:00;;;;;;;7.28;3.30;;;;;;;22.35;45.57;102004.81;5298375;28;20040;-74
2022/08/29 12:10:52;;;;;;;7.45;3.80;;;;;;;22.39;45.32;102005.78;5305624;28;20554;-73
2022/08/29 12:13:57;;;;;;;5.55;3.65;;;;;;;22.52;44.34;102001.03;5307886;28;20028;-75
2022/08/29 12:16:48;;;;;;;5.45;3.42;;;;;;;22.39;42.81;102002.94;5313003;28;20020;-74
2022/08/29 12:19:50;;;;;;;5.22;3.33;;;;;;;22.41;43.24;102002.63;5312852;28;20111;-74
2022/08/29 12:23:02;;;;;;;5.85;3.17;;;;;;;22.56;43.11;102000.00;5301993;28;20019;-74
2022/08/29 12:25:45;;;;;;;6.32;3.63;;;;;;;22.57;43.64;102000.81;5300758;28;20100;-74
2022/08/29 12:28:16;;;;;;;7.57;3.95;;;;;;;22.77;43.72;101993.53;5313626;28;20039;-74
2022/08/29 12:30:57;;;;;;;26.73;18.53;;;;;;;22.78;42.60;101993.19;5317046;28;20031;-74
2022/08/29 12:33:40;;;;;;;5.97;4.22;;;;;;;22.55;42.00;101997.53;5306971;28;20289;-74
2022/08/29 12:36:20;;;;;;;5.65;3.33;;;;;;;22.73;42.69;101995.41;5311037;28;20060;-74
2022/08/29 12:39:04;;;;;;;6.45;4.03;;;;;;;22.51;42.74;101980.44;5306823;28;20060;-74
2022/08/29 12:41:57;;;;;;;8.45;4.38;;;;;;;22.78;43.65;101979.06;5317989;28;20386;-73
2022/08/29 12:44:36;;;;;;;6.28;3.42;;;;;;;22.80;42.67;101975.84;5305635;28;20051;-73
2022/08/29 12:47:11;;;;;;;5.00;3.72;;;;;;;23.02;42.53;101971.06;5303340;28;20028;-73
2022/08/29 12:49:50;;;;;;;;;;;;;;;23.17;42.29;101970.41;5302100;28;20036;-73
2022/08/29 12:52:36;;;;;;;5.00;3.40;;;;;;;23.14;42.14;101962.63;5308643;28;20302;-72
2022/08/29 12:55:31;;;;;;;4.63;2.92;;;;;;;23.24;42.74;101962.19;5301461;28;20027;-72
2022/08/29 12:58:02;;;;;;;7.25;3.80;;;;;;;23.35;41.82;101962.56;5304898;28;20035;-73
2022/08/29 13:00:34;;;;;;;4.60;3.30;;;;;;;23.65;42.48;101957.53;5304279;28;20492;-72
2022/08/29 13:03:19;;;;;;;7.80;3.08;;;;;;;23.70;42.33;101960.13;5297425;28;20087;-73
2022/08/29 13:05:50;;;;;;;7.35;3.65;;;;;;;23.68;42.39;101951.16;5307121;28;20092;-73
2022/08/29 13:08:31;;;;;;;5.32;3.50;;;;;;;23.70;41.89;101960.13;5305069;28;20090;-73
2022/08/29 13:11:08;;;;;;;5.75;3.72;;;;;;;23.70;41.33;101948.81;5298010;28;20063;-75
2022/08/29 13:13:39;;;;;;;4.72;3.05;;;;;;;23.87;40.71;101950.59;5306565;28;20133;-74
2022/08/29 13:16:26;;;;;;;5.53;3.45;;;;;;;24.00;41.17;101942.91;5296900;28;20107;-74
2022/08/29 13:18:58;;;;;;;7.30;4.20;;;;;;;24.12;40.45;101945.75;5304860;28;20024;-73
2022/08/29 13:21:32;;;;;;;6.93;4.13;;;;;;;24.19;40.39;101936.66;5306006;28;20031;-73
2022/08/29 13:24:10;;;;;;;7.53;4.07;;;;;;;24.08;39.91;101948.47;5304917;28;20573;-74
2022/08/29 13:26:53;;;;;;;7.45;3.55;;;;;;;24.14;39.86;101942.56;5302955;28;20028;-75
2022/08/29 13:29:36;;;;;;;10.73;5.93;;;;;;;24.08;40.16;101944.78;5315371;28;20027;-74
2022/08/29 13:32:25;;;;;;;7.53;3.40;;;;;;;24.44;39.90;101943.06;5318023;28;20039;-73
2022/08/29 13:35:15;;;;;;;6.90;3.58;;;;;;;24.13;40.77;101936.03;5321469;28;20539;-74
2022/08/29 13:38:17;;;;;;;5.88;3.33;;;;;;;24.18;40.11;101946.31;5294406;28;20019;-74
2022/08/29 13:40:57;;;;;;;7.32;3.97;;;;;;;24.32;39.74;101937.47;5307506;27;20017;-76
2022/08/29 13:43:38;;;;;;;7.03;3.80;;;;;;;24.51;39.27;101931.97;5307595;28;20039;-75
2022/08/29 13:46:12;;;;;;;7.45;3.60;;;;;;;24.51;38.72;101926.31;5313225;28;20027;-76
2022/08/29 13:48:43;;;;;;;7.93;3.65;;;;;;;24.66;39.10;101930.41;5304247;28;20044;-74
2022/08/29 13:51:15;;;;;;;9.65;4.40;;;;;;;24.74;39.53;101927.41;5287501;28;20052;-72
2022/08/29 13:53:46;;;;;;;8.55;4.72;;;;;;;24.40;39.00;101922.31;5313539;28;20023;-73
2022/08/29 13:56:21;;;;;;;4.72;3.10;;;;;;;24.53;39.68;101921.13;5316582;28;20032;-73
2022/08/29 13:58:53;;;;;;;5.03;3.72;;;;;;;24.62;38.35;101916.13;5315170;28;20039;-73
2022/08/29 14:01:24;;;;;;;5.82;3.67;;;;;;;24.87;39.16;101913.16;5305940;28;20048;-74
2022/08/29 14:03:55;;;;;;;6.90;3.70;;;;;;;24.63;38.30;101917.78;5319594;28;20024;-74
2022/08/29 14:06:27;;;;;;;6.25;3.70;;;;;;;24.61;37.25;101920.13;5305601;28;20116;-74
2022/08/29 14:08:59;;;;;;;6.50;3.70;;;;;;;24.80;37.96;101910.97;5314051;28;20323;-74
2022/08/29 14:11:30;;;;;;;4.65;3.45;;;;;;;25.14;38.67;101902.97;5304737;28;20197;-78
2022/08/29 14:14:01;;;;;;;5.60;3.30;;;;;;;24.95;37.40;101910.19;5303421;28;20047;-77
2022/08/29 14:16:32;;;;;;;8.25;3.78;;;;;;;24.77;36.85;101916.53;5301828;28;20059;-76
2022/08/29 14:19:04;;;;;;;7.13;3.38;;;;;;;24.93;36.91;101904.03;5304961;28;20020;-76
2022/08/29 14:21:35;;;;;;;4.57;3.17;;;;;;;25.24;37.70;101905.31;5296149;28;20514;-73
2022/08/29 14:24:06;;;;;;;5.32;2.45;;;;;;;25.21;35.92;101903.22;5296829;28;20099;-76
2022/08/29 14:26:38;;;;;;;9.27;3.20;;;;;;;25.21;36.30;101899.53;5297046;28;20039;-82
2022/08/29 14:29:09;;;;;;;7.10;5.55;;;;;;;25.19;35.57;101905.59;5303115;28;20016;-75
2022/08/29 14:31:40;;;;;;;7.35;3.83;;;;;;;25.28;35.85;101908.22;5320593;28;20046;-70
2022/08/29 14:34:12;;;;;;;5.28;3.45;;;;;;;25.28;36.04;101905.41;5315626;28;20493;-79
2022/08/29 14:36:43;;;;;;;7.88;3.75;;;;;;;25.13;35.28;101907.84;5310368;28;20088;-74
2022/08/29 14:39:18;;;;;;;4.70;3.33;;;;;;;24.73;36.91;101900.25;5321297;28;20028;-74
2022/08/29 14:41:49;;;;;;;5.10;3.45;;;;;;;24.73;36.62;101883.22;5301714;28;20042;-74
2022/08/29 14:44:21;;;;;;;4.55;3.20;;;;;;;24.86;37.38;101886.00;5313063;28;20028;-75
2022/08/29 14:46:53;;;;;;;6.38;3.00;;;;;;;24.87;36.88;101881.97;5293375;28;20135;-73
2022/08/29 14:49:24;;;;;;;4.13;3.35;;;;;;;24.72;37.45;101872.22;5289684;28;20471;-72
2022/08/29 14:51:56;;;;;;;8.27;3.17;;;;;;;24.93;37.67;101870.00;5298069;28;20086;-71
2022/08/29 14:54:27;;;;;;;5.63;3.13;;;;;;;24.94;37.24;101874.47;5295575;28;20012;-72
2022/08/29 14:56:58;;;;;;;6.30;3.33;;;;;;;24.80;36.30;101870.41;5317224;28;20020;-71
2022/08/29 14:59:30;;;;;;;6.78;3.33;;;;;;;24.74;37.46;101869.84;5292030;28;20016;-72
2022/08/29 15:02:03;;;;;;;5.53;4.13;;;;;;;24.77;36.76;101859.78;5320044;28;20031;-74
2022/08/29 15:04:34;;;;;;;9.93;7.13;;;;;;;24.70;37.29;101861.25;5319838;28;20439;-75
2022/08/29 15:07:11;;;;;;;4.88;3.00;;;;;;;24.67;38.13;101862.00;5308515;28;20030;-74
2022/08/29 15:09:43;;;;;;;5.55;3.08;;;;;;;24.83;37.65;101858.38;5291738;28;20035;-72
2022/08/29 15:12:16;;;;;;;4.75;2.92;;;;;;;24.76;37.67;101858.16;5315967;28;20050;-75
2022/08/29 15:14:48;;;;;;;6.70;3.35;;;;;;;24.67;38.06;101847.81;5307227;28;20047;-76
2022/08/29 15:17:19;;;;;;;9.30;4.63;;;;;;;24.25;38.48;101851.00;5317616;28;20023;-74
2022/08/29 15:19:52;;;;;;;6.63;3.40;;;;;;;24.48;39.25;101850.47;5307509;28;20035;-74
2022/08/29 15:22:23;;;;;;;5.93;3.35;;;;;;;24.62;39.34;101842.41;5314376;28;20027;-74
2022/08/29 15:24:57;;;;;;;4.45;3.30;;;;;;;24.62;38.75;101839.56;5309237;28;20024;-75
2022/08/29 15:27:29;;;;;;;5.15;3.30;;;;;;;24.64;39.45;101848.50;5297768;28;20016;-76
2022/08/29 15:30:01;;;;;;;5.93;3.50;;;;;;;24.44;38.73;101846.69;5317705;28;20028;-75
2022/08/29 15:32:33;;;;;;;5.50;3.13;;;;;;;24.42;38.59;101851.91;5291531;28;20078;-76
2022/08/29 15:35:05;;;;;;;6.68;3.72;;;;;;;24.36;38.25;101845.66;5315137;28;20054;-76
2022/08/29 15:37:37;;;;;;;6.82;3.50;;;;;;;24.52;37.79;101840.91;5293789;28;20023;-75
2022/08/29 15:40:10;;;;;;;5.25;3.40;;;;;;;24.47;37.79;101834.66;5306743;28;20028;-75
2022/08/29 15:42:44;;;;;;;5.82;3.33;;;;;;;24.37;38.33;101830.31;5283730;28;20036;-72
2022/08/29 15:45:15;;;;;;;8.50;3.70;;;;;;;24.19;37.86;101826.94;5316252;28;20031;-75
2022/08/29 15:47:46;;;;;;;7.30;2.95;;;;;;;24.28;37.89;101833.28;5291335;28;20077;-74
2022/08/29 15:50:24;;;;;;;7.65;3.90;;;;;;;24.08;37.60;101837.13;5309720;28;20019;-73
2022/08/29 15:52:55;;;;;;;5.80;3.78;;;;;;;24.17;37.74;101834.16;5306760;28;20475;-73
2022/08/29 15:55:29;;;;;;;6.30;4.18;;;;;;;24.12;37.65;101825.91;5293162;28;20024;-74
2022/08/29 15:58:01;;;;;;;7.05;3.55;;;;;;;24.22;37.30;101843.22;5312283;28;20128;-73
2022/08/29 16:00:32;;;;;;;3.95;2.78;;;;;;;24.27;37.14;101831.63;5289757;28;20082;-73
2022/08/29 16:03:05;;;;;;;7.35;4.10;;;;;;;24.01;37.44;101829.25;5305055;28;20021;-72
2022/08/29 16:05:39;;;;;;;4.35;3.17;;;;;;;24.13;37.88;101825.53;5283295;28;20047;-73
2022/08/29 16:08:10;;;;;;;4.72;3.50;;;;;;;24.26;37.52;101829.16;5298638;28;20026;-73
2022/08/29 16:10:42;;;;;;;5.70;3.10;;;;;;;23.98;37.81;101835.63;5315403;28;20456;-73
2022/08/29 16:13:13;;;;;;;7.00;3.47;;;;;;;24.10;38.18;101834.75;5306655;28;20028;-72
2022/08/29 16:15:45;;;;;;;7.95;3.58;;;;;;;24.07;38.79;101833.47;5319163;28;20028;-73
2022/08/29 16:18:16;;;;;;;6.03;3.67;;;;;;;24.02;38.95;101825.22;5308474;28;20020;-73
2022/08/29 16:20:47;;;;;;;5.60;3.30;;;;;;;24.08;38.60;101823.81;5299129;28;20104;-73
2022/08/29 16:23:19;;;;;;;5.38;3.17;;;;;;;24.18;38.56;101828.13;5306220;28;20029;-73
2022/08/29 16:25:50;;;;;;;4.80;3.20;;;;;;;23.99;38.48;101816.63;5322417;28;20024;-73
2022/08/29 16:28:21;;;;;;;4.93;3.22;;;;;;;24.21;37.90;101824.59;5316599;28;20023;-73
2022/08/29 16:30:53;;;;;;;9.10;3.65;;;;;;;23.99;37.38;101820.28;5313188;28;20061;-74
2022/08/29 16:33:24;;;;;;;6.68;3.42;;;;;;;24.29;37.14;101829.28;5307565;28;20111;-73
2022/08/29 16:35:59;;;;;;;7.60;3.65;;;;;;;24.05;37.73;101824.50;5312340;28;20488;-73
2022/08/29 16:38:31;;;;;;;;;;;;;;;24.43;38.06;101823.19;5317381;28;20111;-73
2022/08/29 16:41:10;;;;;;;4.72;3.08;;;;;;;24.10;38.27;101826.25;5289057;28;20458;-73
2022/08/29 16:43:50;;;;;;;5.55;3.08;;;;;;;24.24;38.18;101821.03;5295088;28;20019;-73
2022/08/29 16:46:25;;;;;;;5.78;3.60;;;;;;;24.24;38.59;101829.53;5307088;28;20036;-72
2022/08/29 16:48:56;;;;;;;5.72;3.33;;;;;;;24.03;38.49;101824.06;5287069;28;20036;-72
2022/08/29 16:51:28;;;;;;;4.55;2.92;;;;;;;24.13;38.92;101822.69;5314132;28;20036;-72
2022/08/29 16:54:02;;;;;;;5.97;3.78;;;;;;;24.37;38.00;101815.31;5299890;28;20055;-73
2022/08/29 16:56:34;;;;;;;4.70;3.38;;;;;;;24.20;37.96;101820.09;5310515;28;20057;-72
2022/08/29 16:59:06;;;;;;;8.35;4.00;;;;;;;24.23;37.65;101819.34;5307772;28;20110;-72
2022/08/29 17:01:47;;;;;;;5.95;3.53;;;;;;;24.03;37.96;101809.03;5323019;28;20032;-73
2022/08/29 17:04:24;;;;;;;8.45;3.47;;;;;;;24.13;37.52;101819.88;5307399;28;20107;-73
2022/08/29 17:06:56;;;;;;;4.68;3.22;;;;;;;23.95;38.12;101818.50;5307191;28;20028;-72
2022/08/29 17:17:01;;;;;;;5.18;2.78;;;;;;;23.75;37.98;101815.50;5288629;28;20116;-73
2022/08/29 17:19:33;;;;;;;5.90;3.13;;;;;;;23.79;37.78;101818.44;5296771;28;20016;-73
2022/08/29 17:22:04;;;;;;;8.10;3.22;;;;;;;23.77;37.71;101807.44;5301278;28;20057;-72
2022/08/29 17:24:35;;;;;;;6.55;4.07;;;;;;;23.75;37.68;101807.00;5314220;28;20178;-73
2022/08/29 17:27:09;;;;;;;7.93;3.10;;;;;;;23.70;37.71;101807.22;5319257;28;20027;-73
2022/08/29 17:29:40;;;;;;;5.25;3.25;;;;;;;23.54;38.09;101815.59;5293577;28;20102;-73
2022/08/29 17:32:13;;;;;;;7.30;3.55;;;;;;;23.59;38.90;101811.69;5303502;28;20111;-73
